Aeroporto :
LOGIN :

Iscrizione | Disclaimer

   EN    FR    IT 

 










Sommario :    VFR   VFR Marginale   IFR   IFR Intensivo   IFR Molto Intensivo
Visibilità : 
Base nubi : 
>= 8 km
>= 3000ft
5 / 8 km
1000 / 3000 ft
1500m / 5 km
500 / 1000 ft
800 / 1500m
200 / 500 ft
< 800m
< 200 ft
Simboli :   Temporali  Nebbia  Neve Forte  Precipitazioni Forti  Vento > 20 kt
SIGMETs :   Varie  Temporali  Ghiacco  Turbolenza  Onda orograficha  Ceneri Vulcaniche






- Altitudine del aeroporto : 62 ft
- Codice IATA : TAN


GMTT - Tanger Ibn Batouta

ULTIMO METAR :
  • 171500Z 26004KT 210V290 CAVOK 18/14 Q1027 NOSIG

METARs OBSOLETI :
  • 171430Z 25006KT 220V280 9999 FEW010 17/14 Q1027 NOSIG
  • 171400Z 26005KT 220V300 9999 FEW010 SCT016 17/15 Q1027 NOSIG
  • 171330Z 27006KT 240V310 9999 FEW006 BKN015 17/15 Q1028 NOSIG
  • 171300Z 27006KT 240V300 6000 SCT005 BKN011 17/15 Q1028 NOSIG
  • 171230Z 27006KT 230V300 6000 FEW006 BKN013 17/16 Q1028 NOSIG

TAF TAF GMTT
Valido dal 17 a 12 ore il 18 a 18 ore UTC


171100Z 1712/1818 25006KT 6000 FEW008 BKN015
BECMG 1712/1715 SCT020
PROB40 1801/1808 3000 BR
BECMG 1809/1813 09014KT



MetMap, La meteo Aeronautica in un colpo d'occhio ! - Copyright ORBIFLY Dicembre 2007 - Disclaimer

ORBIFLY MET'MAP TEAM :

Programmazione e sviluppo : Alexandra Zaïnal
Concezione : Baudouin d'Aumeries
Aiuto per la programmazione : Marc-Olivier Méhu
Supporto tecnico e logistico : Manuel Goepfert
Aiuto per la traduzione : Arnaldo La Scala

Contatto : metmap@orbifly.com




FONTI E CREDITI :

   NOAA